Sentry Page Protection

Latest Glasgow METAR Decoded

What is a METAR?

Raw METAR: EGPF 160850Z 30006KT 9999 -RA SCT007 SCT013 OVC041 16/14 Q1009
Time Published: Tue Jul 16 08:50:00 2024

Altimeter: 1009 hPa (29.80 inHg)
Clouds: Scattered clouds at 700ft, Scattered clouds at 1300ft, Overcast layer at 4100ft - Reported AGL
Dewpoint: 14°C (57°F)
Temperature: 16°C (61°F)
Visibility: 10km (6.2sm)
Wind: WNW-300 at 6kt
Wx_codes: Light Rain

Data pulled from AVWX API.

Customise webcam positions

Apply changes